createdAt,value
2022-08-10T00:00:38.046Z,5.75
2022-08-10T00:03:06.174Z,5.68
2022-08-10T00:09:05.854Z,8.43
2022-08-10T00:11:50.945Z,8.10
2022-08-10T00:14:18.403Z,5.00
2022-08-10T00:16:52.017Z,3.92
2022-08-10T00:19:19.305Z,5.40
2022-08-10T00:21:48.900Z,6.80
2022-08-10T00:24:16.226Z,5.75
2022-08-10T00:27:52.061Z,7.53
2022-08-10T00:29:31.008Z,5.55
2022-08-10T00:32:04.477Z,4.30
2022-08-10T00:34:32.807Z,7.40
2022-08-10T00:37:00.191Z,7.78
2022-08-10T00:39:28.288Z,6.05
2022-08-10T00:48:34.540Z,8.00
2022-08-10T00:51:01.887Z,6.22
2022-08-10T00:53:29.834Z,6.72
2022-08-10T00:56:38.408Z,7.75
2022-08-10T00:58:54.239Z,8.10
2022-08-10T01:02:08.913Z,10.93
2022-08-10T01:04:57.869Z,6.65
2022-08-10T01:07:17.455Z,8.05
2022-08-10T01:10:10.869Z,7.32
2022-08-10T01:12:54.401Z,5.50
2022-08-10T01:15:28.475Z,7.50
2022-08-10T01:18:12.925Z,9.45
2022-08-10T01:20:45.154Z,12.57
2022-08-10T01:29:42.076Z,11.98
2022-08-10T01:32:10.375Z,6.45
2022-08-10T01:34:43.750Z,5.97
2022-08-10T01:37:14.525Z,10.43
2022-08-10T01:39:45.636Z,10.05
2022-08-10T01:42:16.691Z,15.43
2022-08-10T01:44:47.915Z,10.23
2022-08-10T01:47:34.767Z,8.90
2022-08-10T01:52:55.158Z,8.70
2022-08-10T01:55:24.625Z,11.80
2022-08-10T01:57:52.784Z,12.35
2022-08-10T02:00:33.350Z,7.55
2022-08-10T02:03:01.538Z,7.07
2022-08-10T02:05:29.286Z,7.10
2022-08-10T02:07:57.804Z,10.05
2022-08-10T02:13:47.799Z,7.03
2022-08-10T02:19:49.397Z,7.18
2022-08-10T02:25:41.191Z,14.60
2022-08-10T02:28:12.792Z,15.55
2022-08-10T02:30:56.074Z,8.82
2022-08-10T02:33:25.802Z,7.00
2022-08-10T02:35:58.970Z,9.85
2022-08-10T02:38:58.124Z,7.82
2022-08-10T02:45:00.913Z,10.32
2022-08-10T02:45:22.329Z,8.02
2022-08-10T02:54:08.969Z,10.20
2022-08-10T02:56:39.511Z,8.25
2022-08-10T02:59:06.797Z,14.38
2022-08-10T03:04:55.184Z,9.63
2022-08-10T03:07:43.104Z,19.25
2022-08-10T03:10:30.912Z,10.13
2022-08-10T03:13:03.572Z,12.27
2022-08-10T03:15:37.582Z,12.23
2022-08-10T03:18:06.055Z,9.75
2022-08-10T03:20:39.704Z,11.75
2022-08-10T03:23:13.706Z,10.38
2022-08-10T03:28:59.521Z,10.30
2022-08-10T03:31:40.095Z,11.00
2022-08-10T03:34:22.136Z,12.93
2022-08-10T03:36:56.361Z,9.73
2022-08-10T03:39:23.887Z,10.30
2022-08-10T03:42:03.140Z,11.35
2022-08-10T03:44:32.376Z,12.75
2022-08-10T03:47:00.787Z,11.63
2022-08-10T03:49:29.958Z,9.70
2022-08-10T03:51:58.110Z,10.07
2022-08-10T03:54:26.161Z,13.07
2022-08-10T03:56:53.567Z,13.10
2022-08-10T03:59:21.585Z,11.52
2022-08-10T04:02:45.458Z,11.57
2022-08-10T04:04:54.911Z,14.52
2022-08-10T04:07:23.602Z,8.90
2022-08-10T04:09:55.441Z,14.00
2022-08-10T04:12:23.979Z,8.85
2022-08-10T04:14:53.125Z,8.68
2022-08-10T04:18:02.875Z,8.13
2022-08-10T04:20:49.948Z,10.25
2022-08-10T04:23:23.042Z,9.60
2022-08-10T04:25:51.174Z,6.38
2022-08-10T04:28:18.743Z,7.10
2022-08-10T04:30:47.186Z,16.80
2022-08-10T04:33:16.322Z,8.40
2022-08-10T04:35:45.307Z,10.68
2022-08-10T04:38:16.339Z,10.77
2022-08-10T04:40:44.285Z,8.48
2022-08-10T04:43:13.350Z,6.70
2022-08-10T04:45:49.823Z,9.55
2022-08-10T04:48:39.955Z,7.47
2022-08-10T04:51:17.858Z,8.43
2022-08-10T04:54:05.635Z,7.22
2022-08-10T04:56:38.222Z,6.90
2022-08-10T04:59:06.893Z,10.47
2022-08-10T05:02:30.574Z,6.95
2022-08-10T05:04:34.839Z,5.53
2022-08-10T05:07:06.016Z,5.50
2022-08-10T05:09:33.470Z,5.43
2022-08-10T05:12:20.752Z,8.35
2022-08-10T05:14:48.258Z,4.55
2022-08-10T05:17:15.666Z,5.78
2022-08-10T05:20:03.523Z,5.43
2022-08-10T05:22:39.144Z,5.45
2022-08-10T05:25:08.382Z,5.13
2022-08-10T05:27:36.329Z,5.63
2022-08-10T05:30:04.603Z,5.63
2022-08-10T05:32:32.293Z,5.70
2022-08-10T05:34:59.810Z,6.72
2022-08-10T05:38:10.083Z,6.72
2022-08-10T05:40:16.719Z,6.93
2022-08-10T05:42:44.063Z,5.80
2022-08-10T05:45:21.849Z,4.43
2022-08-10T05:48:42.150Z,5.72
2022-08-10T05:50:36.684Z,4.68
2022-08-10T05:53:59.718Z,8.60
2022-08-10T05:55:51.557Z,4.07
2022-08-10T05:58:19.148Z,4.35
2022-08-10T06:00:50.152Z,7.05
2022-08-10T06:03:19.110Z,4.25
2022-08-10T06:05:53.761Z,3.72
2022-08-10T06:08:22.756Z,4.07
2022-08-10T06:12:24.528Z,3.70
2022-08-10T06:14:05.447Z,7.63
2022-08-10T06:16:35.094Z,5.80
2022-08-10T06:19:03.406Z,7.00
2022-08-10T06:21:32.048Z,4.30
2022-08-10T06:24:01.126Z,5.00
2022-08-10T06:26:28.400Z,4.03
2022-08-10T06:29:03.238Z,4.82
2022-08-10T06:31:47.834Z,5.65
2022-08-10T06:34:27.644Z,4.13
2022-08-10T06:36:57.484Z,7.60
2022-08-10T06:39:34.456Z,5.15
2022-08-10T06:42:17.585Z,4.88
2022-08-10T06:44:52.495Z,5.03
2022-08-10T06:47:23.115Z,5.07
2022-08-10T06:49:54.161Z,4.20
2022-08-10T06:52:30.527Z,7.68
2022-08-10T06:54:59.343Z,6.40
2022-08-10T06:57:30.935Z,6.65
2022-08-10T06:59:59.323Z,4.47
2022-08-10T07:02:33.698Z,4.72
2022-08-10T07:05:03.509Z,3.22
2022-08-10T07:07:32.199Z,3.33
2022-08-10T07:10:01.054Z,3.88
2022-08-10T07:12:30.826Z,4.22
2022-08-10T07:14:59.357Z,7.05
2022-08-10T07:17:27.760Z,4.88
2022-08-10T07:19:56.180Z,3.35
2022-08-10T07:23:01.205Z,4.55
2022-08-10T07:25:20.429Z,5.35
2022-08-10T07:27:58.570Z,5.22
2022-08-10T07:30:32.139Z,3.75
2022-08-10T07:33:00.743Z,5.22
2022-08-10T07:35:32.059Z,3.80
2022-08-10T07:38:05.465Z,4.53
2022-08-10T07:40:34.322Z,2.72
2022-08-10T07:43:02.223Z,4.03
2022-08-10T07:45:31.415Z,2.92
2022-08-10T07:48:06.641Z,3.47
2022-08-10T07:50:37.462Z,2.85
2022-08-10T07:53:07.173Z,4.10
2022-08-10T07:56:03.712Z,4.68
2022-08-10T07:58:24.342Z,3.42
2022-08-10T08:00:52.922Z,3.65
2022-08-10T08:03:23.846Z,5.07
2022-08-10T08:05:58.777Z,3.05
2022-08-10T08:08:32.007Z,4.32
2022-08-10T08:10:59.668Z,4.45
2022-08-10T08:13:27.693Z,4.40
2022-08-10T08:16:19.997Z,3.92
2022-08-10T08:19:27.012Z,3.53
2022-08-10T08:24:10.493Z,3.40
2022-08-10T08:24:34.189Z,7.78
2022-08-10T08:29:30.568Z,2.78
2022-08-10T08:32:02.560Z,5.35
2022-08-10T08:34:32.174Z,4.38
2022-08-10T08:37:00.963Z,4.28
2022-08-10T08:39:28.721Z,8.23
2022-08-10T08:42:11.306Z,4.28
2022-08-10T08:44:47.679Z,2.70
2022-08-10T08:48:03.104Z,4.75
2022-08-10T08:50:16.298Z,2.50
2022-08-10T08:52:58.893Z,2.97
2022-08-10T08:56:03.480Z,2.40
2022-08-10T08:58:28.768Z,3.47
2022-08-10T09:01:03.375Z,3.40
2022-08-10T09:03:30.889Z,2.08
2022-08-10T09:06:10.181Z,3.00
2022-08-10T09:08:40.404Z,2.45
2022-08-10T09:11:23.673Z,4.88
2022-08-10T09:14:14.133Z,4.65
2022-08-10T09:17:00.739Z,6.63
2022-08-10T09:19:35.392Z,4.13
2022-08-10T09:22:22.482Z,3.70
2022-08-10T09:24:54.105Z,5.55
2022-08-10T09:27:22.634Z,4.95
2022-08-10T09:29:54.773Z,7.22
2022-08-10T09:36:20.309Z,3.45
2022-08-10T09:38:47.909Z,2.60
2022-08-10T09:41:18.207Z,3.20
2022-08-10T09:43:52.203Z,2.10
2022-08-10T09:46:41.601Z,4.30
2022-08-10T09:49:11.820Z,2.22
2022-08-10T09:51:50.763Z,2.58
2022-08-10T09:54:36.355Z,3.25
2022-08-10T09:57:44.016Z,2.47
2022-08-10T10:00:04.918Z,2.45
2022-08-10T10:02:37.964Z,3.60
2022-08-10T10:05:05.307Z,4.32
2022-08-10T10:07:34.250Z,4.53
2022-08-10T10:10:10.428Z,2.50
2022-08-10T10:12:55.200Z,2.97
2022-08-10T10:15:38.726Z,2.10
2022-08-10T10:18:12.111Z,2.15
2022-08-10T10:20:57.927Z,3.20
2022-08-10T10:23:59.748Z,2.10
2022-08-10T10:26:49.668Z,2.88
2022-08-10T10:29:58.170Z,5.97
2022-08-10T10:32:24.092Z,4.18
2022-08-10T10:34:59.449Z,2.10
2022-08-10T10:38:01.713Z,2.50
2022-08-10T10:40:15.526Z,4.28
2022-08-10T10:42:49.704Z,7.18
2022-08-10T10:45:27.127Z,3.28
2022-08-10T10:48:24.196Z,3.03
2022-08-10T10:51:15.092Z,3.50
2022-08-10T10:54:01.280Z,2.80
2022-08-10T10:56:28.617Z,5.20
2022-08-10T10:58:58.968Z,3.33
2022-08-10T11:01:34.991Z,1.92
2022-08-10T11:04:13.652Z,2.50
2022-08-10T11:06:50.583Z,2.28
2022-08-10T11:10:04.505Z,3.38
2022-08-10T11:12:21.516Z,6.40
2022-08-10T11:15:09.871Z,3.25
2022-08-10T11:17:37.346Z,1.98
2022-08-10T11:20:11.764Z,3.65
2022-08-10T11:22:50.532Z,2.50
2022-08-10T11:25:20.866Z,2.75
2022-08-10T11:27:51.249Z,2.95
2022-08-10T11:30:20.786Z,1.90
2022-08-10T11:33:06.688Z,3.90
2022-08-10T11:35:53.624Z,2.70
2022-08-10T11:38:57.557Z,4.53
2022-08-10T11:42:09.550Z,2.78
2022-08-10T11:44:27.630Z,5.15
2022-08-10T11:47:12.034Z,2.35
2022-08-10T11:49:51.305Z,4.18
2022-08-10T11:55:33.662Z,4.88
2022-08-10T11:58:09.025Z,1.83
2022-08-10T12:00:37.589Z,2.40
2022-08-10T12:03:07.249Z,4.38
2022-08-10T12:05:52.646Z,1.98
2022-08-10T12:10:04.462Z,3.53
2022-08-10T12:11:24.276Z,2.85
2022-08-10T12:14:20.158Z,6.15
2022-08-10T12:16:48.264Z,3.42
2022-08-10T12:19:20.578Z,1.95
2022-08-10T12:21:52.204Z,2.20
2022-08-10T12:24:28.957Z,3.60
2022-08-10T12:27:02.792Z,2.30
2022-08-10T12:29:30.264Z,3.00
2022-08-10T12:32:11.045Z,2.80
2022-08-10T12:34:50.786Z,1.92
2022-08-10T12:37:54.789Z,3.53
2022-08-10T12:40:38.770Z,2.80
2022-08-10T12:44:07.867Z,5.57
2022-08-10T12:46:26.085Z,2.33
2022-08-10T12:48:59.222Z,2.50
2022-08-10T12:51:31.053Z,1.80
2022-08-10T12:56:31.571Z,3.00
2022-08-10T12:59:01.680Z,1.63
2022-08-10T13:02:07.771Z,2.15
2022-08-10T13:04:28.865Z,2.72
2022-08-10T13:06:58.978Z,2.75
2022-08-10T13:09:26.435Z,2.35
2022-08-10T13:12:37.099Z,1.80
2022-08-10T13:14:45.667Z,2.53
2022-08-10T13:17:14.395Z,4.43
2022-08-10T13:19:56.607Z,1.88
2022-08-10T13:22:34.581Z,5.35
2022-08-10T13:25:03.829Z,3.00
2022-08-10T13:28:01.159Z,4.43
2022-08-10T13:30:35.602Z,4.47
2022-08-10T13:33:14.180Z,2.45
2022-08-10T13:35:47.298Z,1.73
2022-08-10T13:38:21.364Z,3.67
2022-08-10T13:40:49.667Z,2.08
2022-08-10T13:43:17.741Z,1.83
2022-08-10T13:45:49.841Z,1.90
2022-08-10T13:48:20.072Z,1.90
2022-08-10T13:50:47.823Z,1.70
2022-08-10T13:53:16.002Z,5.47
2022-08-10T13:55:55.533Z,1.90
2022-08-10T13:58:26.032Z,1.50
2022-08-10T14:00:54.138Z,2.17
2022-08-10T14:03:22.042Z,2.13
2022-08-10T14:05:53.813Z,2.20
2022-08-10T14:08:26.456Z,1.70
2022-08-10T14:11:08.764Z,1.60
2022-08-10T14:13:59.155Z,5.45
2022-08-10T14:16:26.838Z,1.92
2022-08-10T14:18:56.708Z,2.35
2022-08-10T14:21:24.088Z,5.75
2022-08-10T14:23:53.205Z,2.05
2022-08-10T14:26:25.835Z,2.42
2022-08-10T14:28:54.535Z,2.17
2022-08-10T14:31:29.681Z,3.17
2022-08-10T14:34:00.682Z,3.28
2022-08-10T14:36:32.609Z,3.97
2022-08-10T14:39:02.374Z,2.88
2022-08-10T14:42:04.223Z,4.60
2022-08-10T14:44:20.388Z,1.52
2022-08-10T14:46:53.213Z,3.03
2022-08-10T14:49:25.673Z,2.65
2022-08-10T14:51:59.492Z,2.35
2022-08-10T14:54:29.046Z,2.78
2022-08-10T14:57:11.270Z,3.58
2022-08-10T15:02:56.202Z,2.88
2022-08-10T15:05:35.937Z,1.63
2022-08-10T15:08:08.515Z,2.83
2022-08-10T15:10:36.530Z,3.40
2022-08-10T15:13:07.511Z,1.63
2022-08-10T15:16:11.272Z,3.37
2022-08-10T15:18:58.285Z,1.92
2022-08-10T15:21:43.039Z,1.30
2022-08-10T15:24:15.132Z,1.25
2022-08-10T15:26:51.390Z,2.85
2022-08-10T15:29:26.198Z,1.42
2022-08-10T15:31:53.865Z,2.00
2022-08-10T15:34:21.698Z,1.38
2022-08-10T15:37:36.631Z,1.52
2022-08-10T15:40:25.133Z,1.60
2022-08-10T15:42:55.479Z,2.42
2022-08-10T15:45:26.038Z,2.90
2022-08-10T15:48:01.074Z,1.25
2022-08-10T15:50:40.150Z,4.40
2022-08-10T15:53:31.090Z,1.20
2022-08-10T15:55:59.502Z,2.40
2022-08-10T15:58:37.677Z,1.30
2022-08-10T16:02:04.201Z,3.72
2022-08-10T16:06:32.165Z,2.35
2022-08-10T16:10:23.797Z,1.15
2022-08-10T16:11:55.017Z,1.85
2022-08-10T16:14:24.933Z,3.17
2022-08-10T16:16:55.180Z,1.17
2022-08-10T16:19:25.332Z,3.00
2022-08-10T16:21:55.825Z,1.40
2022-08-10T16:24:24.044Z,2.83
2022-08-10T16:26:52.276Z,1.65
2022-08-10T16:29:21.901Z,2.40
2022-08-10T16:31:56.432Z,1.23
2022-08-10T16:34:25.730Z,2.65
2022-08-10T16:36:54.610Z,1.98
2022-08-10T16:39:58.008Z,1.38
2022-08-10T16:42:17.079Z,2.00
2022-08-10T16:44:52.933Z,2.92
2022-08-10T16:47:27.367Z,2.25
2022-08-10T16:49:55.948Z,1.70
2022-08-10T16:52:27.208Z,2.35
2022-08-10T16:54:59.124Z,3.20
2022-08-10T16:57:27.855Z,2.20
2022-08-10T16:59:56.203Z,2.63
2022-08-10T17:02:24.898Z,3.15
2022-08-10T17:04:52.699Z,1.80
2022-08-10T17:07:30.505Z,2.08
2022-08-10T17:09:59.235Z,3.25
2022-08-10T17:12:27.971Z,1.30
2022-08-10T17:15:10.409Z,3.28
2022-08-10T17:17:41.317Z,4.63
2022-08-10T17:20:30.156Z,4.22
2022-08-10T17:23:00.576Z,4.53
2022-08-10T17:25:45.995Z,4.25
2022-08-10T17:28:32.850Z,2.92
2022-08-10T17:31:35.359Z,2.22
2022-08-10T17:34:14.870Z,3.15
2022-08-10T17:36:44.784Z,1.58
2022-08-10T17:39:16.384Z,3.05
2022-08-10T17:41:47.907Z,1.75
2022-08-10T17:44:16.118Z,1.90
2022-08-10T17:46:44.849Z,3.10
2022-08-10T17:49:13.483Z,11.13
2022-08-10T17:51:41.919Z,5.97
2022-08-10T17:54:20.076Z,3.83
2022-08-10T17:56:49.017Z,3.13
2022-08-10T17:59:26.032Z,4.38
2022-08-10T18:02:01.870Z,3.75
2022-08-10T18:04:41.256Z,2.72
2022-08-10T18:07:10.777Z,3.42
2022-08-10T18:09:44.029Z,6.57
2022-08-10T18:12:17.820Z,3.75
2022-08-10T18:14:47.323Z,2.92
2022-08-10T18:17:17.985Z,10.40
2022-08-10T18:19:46.768Z,2.92
2022-08-10T18:22:16.074Z,5.57
2022-08-10T18:24:47.271Z,3.53
2022-08-10T18:27:15.461Z,8.35
2022-08-10T18:29:44.769Z,3.75
2022-08-10T18:32:13.737Z,8.02
2022-08-10T18:34:42.166Z,4.50
2022-08-10T18:37:19.541Z,4.30
2022-08-10T18:39:49.115Z,4.85
2022-08-10T18:42:21.297Z,3.45
2022-08-10T18:44:52.959Z,2.90
2022-08-10T18:47:59.068Z,3.67
2022-08-10T18:50:33.951Z,2.28
2022-08-10T18:53:03.694Z,5.22
2022-08-10T18:55:35.458Z,5.90
2022-08-10T18:58:31.563Z,6.28
2022-08-10T19:01:19.669Z,3.88
2022-08-10T19:03:53.535Z,6.35
2022-08-10T19:06:28.004Z,6.53
2022-08-10T19:08:59.811Z,3.63
2022-08-10T19:11:36.765Z,5.80
2022-08-10T19:14:04.004Z,3.85
2022-08-10T19:16:50.236Z,4.60
2022-08-10T19:19:25.743Z,4.43
2022-08-10T19:22:13.438Z,10.52
2022-08-10T19:24:43.747Z,3.60
2022-08-10T19:27:29.670Z,4.43
2022-08-10T19:30:11.996Z,7.13
2022-08-10T19:32:47.161Z,5.03
2022-08-10T19:36:03.304Z,7.07
2022-08-10T19:38:33.201Z,2.90
2022-08-10T19:41:09.543Z,4.78
2022-08-10T19:44:01.530Z,6.60
2022-08-10T19:46:30.896Z,6.18
2022-08-10T19:49:11.415Z,3.13
2022-08-10T19:54:11.780Z,5.72
2022-08-10T19:56:59.293Z,4.50
2022-08-10T20:00:01.960Z,7.70
2022-08-10T20:02:24.966Z,3.22
2022-08-10T20:05:18.601Z,4.32
2022-08-10T20:07:57.991Z,4.70
2022-08-10T20:10:34.754Z,3.88
2022-08-10T20:13:34.427Z,5.90
2022-08-10T20:16:07.091Z,6.80
2022-08-10T20:18:41.825Z,3.88
2022-08-10T20:21:16.506Z,4.10
2022-08-10T20:24:04.044Z,8.23
2022-08-10T20:26:33.800Z,6.97
2022-08-10T20:29:06.418Z,4.18
2022-08-10T20:31:39.168Z,10.63
2022-08-10T20:34:18.116Z,4.00
2022-08-10T20:36:54.892Z,7.18
2022-08-10T20:39:34.226Z,6.13
2022-08-10T20:42:20.449Z,5.07
2022-08-10T20:44:59.297Z,9.50
2022-08-10T20:47:54.219Z,5.47
2022-08-10T20:50:35.049Z,5.35
2022-08-10T20:53:16.105Z,8.45
2022-08-10T20:56:14.236Z,5.90
2022-08-10T20:58:48.424Z,7.30
2022-08-10T21:01:21.411Z,8.38
2022-08-10T21:04:11.290Z,4.55
2022-08-10T21:06:56.260Z,4.63
2022-08-10T21:09:38.352Z,5.38
2022-08-10T21:12:28.444Z,10.45
2022-08-10T21:15:17.359Z,8.10
2022-08-10T21:17:53.456Z,10.73
2022-08-10T21:20:28.738Z,5.47
2022-08-10T21:23:05.255Z,5.85
2022-08-10T21:25:40.204Z,4.68
2022-08-10T21:28:16.669Z,5.18
2022-08-10T21:31:06.616Z,5.50
2022-08-10T21:33:36.259Z,4.40
2022-08-10T21:36:17.629Z,6.15
2022-08-10T21:38:52.476Z,6.07
2022-08-10T21:41:57.408Z,6.38
2022-08-10T21:44:43.176Z,5.03
2022-08-10T21:47:43.462Z,4.72
2022-08-10T21:50:27.409Z,4.53
2022-08-10T21:53:16.643Z,4.47
2022-08-10T21:55:57.763Z,8.13
2022-08-10T21:58:46.580Z,7.95
2022-08-10T22:01:22.509Z,5.82
2022-08-10T22:04:07.303Z,7.45
2022-08-10T22:06:38.626Z,6.25
2022-08-10T22:09:24.556Z,5.53
2022-08-10T22:11:55.686Z,8.30
2022-08-10T22:14:33.680Z,6.00
2022-08-10T22:17:04.130Z,6.22
2022-08-10T22:19:42.513Z,4.95
2022-08-10T22:22:20.072Z,6.40
2022-08-10T22:25:03.546Z,6.88
2022-08-10T22:27:47.012Z,7.43
2022-08-10T22:30:22.632Z,8.05
2022-08-10T22:33:09.127Z,4.95
2022-08-10T22:35:42.814Z,5.65
2022-08-10T22:38:30.308Z,9.95
2022-08-10T22:41:02.301Z,7.30
2022-08-10T22:43:36.267Z,4.55
2022-08-10T22:46:06.940Z,5.10
2022-08-10T22:48:53.477Z,6.97
2022-08-10T22:51:23.067Z,6.55
2022-08-10T22:53:54.938Z,4.97
2022-08-10T22:58:49.531Z,6.50
2022-08-10T23:01:19.028Z,7.78
2022-08-10T23:03:48.525Z,6.30
2022-08-10T23:06:20.959Z,14.07
2022-08-10T23:08:50.113Z,6.60
2022-08-10T23:11:37.357Z,7.63
2022-08-10T23:14:10.109Z,6.20
2022-08-10T23:16:42.995Z,6.43
2022-08-10T23:19:17.220Z,6.97
2022-08-10T23:22:01.231Z,4.57
2022-08-10T23:24:35.225Z,6.28
2022-08-10T23:27:37.585Z,5.18
2022-08-10T23:30:19.043Z,7.68
2022-08-10T23:32:49.956Z,6.40
2022-08-10T23:36:05.613Z,7.22
2022-08-10T23:38:08.134Z,6.40
2022-08-10T23:40:50.177Z,5.63
2022-08-10T23:43:19.120Z,7.00
2022-08-10T23:45:54.979Z,6.50
2022-08-10T23:48:26.747Z,7.18
2022-08-10T23:53:44.462Z,7.68
2022-08-10T23:56:30.709Z,6.90
2022-08-10T23:58:59.207Z,7.97
